createdAt,value
2023-03-03T00:04:31.684Z,28.90
2023-03-03T00:09:34.829Z,32.20
2023-03-03T00:14:38.016Z,30.87
2023-03-03T00:19:42.331Z,40.27
2023-03-03T00:24:45.271Z,40.57
2023-03-03T00:29:55.632Z,47.50
2023-03-03T00:35:26.263Z,61.50
2023-03-03T00:40:40.666Z,84.87
2023-03-03T00:45:53.217Z,66.53
2023-03-03T00:51:01.580Z,38.63
2023-03-03T00:56:04.892Z,33.53
2023-03-03T01:01:08.098Z,32.80
2023-03-03T01:06:12.612Z,32.67
2023-03-03T01:11:25.958Z,37.50
2023-03-03T01:16:29.289Z,33.87
2023-03-03T01:21:32.373Z,40.30
2023-03-03T01:26:35.459Z,34.97
2023-03-03T01:31:38.727Z,33.03
2023-03-03T01:36:41.772Z,33.73
2023-03-03T01:41:44.660Z,29.43
2023-03-03T01:47:13.252Z,44.50
2023-03-03T01:52:47.231Z,33.67
2023-03-03T01:58:01.344Z,41.53
2023-03-03T02:03:05.881Z,33.27
2023-03-03T02:08:12.523Z,50.80
2023-03-03T02:13:15.635Z,34.03
2023-03-03T02:18:21.065Z,35.00
2023-03-03T02:23:46.450Z,44.47
2023-03-03T02:28:50.484Z,45.87
2023-03-03T02:33:55.505Z,38.03
2023-03-03T02:39:13.800Z,38.30
2023-03-03T02:44:20.676Z,43.23
2023-03-03T02:49:34.240Z,48.60
2023-03-03T02:54:38.031Z,41.17
2023-03-03T02:59:40.966Z,50.73
2023-03-03T03:04:43.867Z,44.20
2023-03-03T03:09:46.679Z,45.33
2023-03-03T03:14:49.893Z,45.83
2023-03-03T03:19:52.863Z,43.10
2023-03-03T03:24:55.980Z,39.47
2023-03-03T03:29:58.894Z,40.10
2023-03-03T03:35:02.278Z,35.80
2023-03-03T03:40:06.259Z,43.27
2023-03-03T03:45:09.956Z,42.53
2023-03-03T03:50:13.314Z,35.57
2023-03-03T03:55:16.444Z,39.90
2023-03-03T04:00:19.754Z,38.30
2023-03-03T04:05:23.249Z,37.87
2023-03-03T04:10:26.384Z,41.77
2023-03-03T04:15:30.348Z,40.33
2023-03-03T04:20:33.450Z,52.23
2023-03-03T04:25:36.923Z,70.70
2023-03-03T04:30:40.531Z,79.10
2023-03-03T04:35:43.481Z,55.80
2023-03-03T04:40:46.559Z,51.63
2023-03-03T04:45:49.555Z,52.97
2023-03-03T04:50:52.689Z,52.50
2023-03-03T04:55:55.728Z,40.70
2023-03-03T05:00:59.103Z,49.17
2023-03-03T05:06:02.111Z,48.20
2023-03-03T05:11:05.398Z,52.43
2023-03-03T05:16:09.073Z,44.40
2023-03-03T05:21:12.660Z,62.23
2023-03-03T05:26:15.664Z,68.00
2023-03-03T05:31:18.727Z,54.23
2023-03-03T05:36:22.320Z,44.23
2023-03-03T05:41:25.463Z,41.93
2023-03-03T05:46:28.798Z,45.20
2023-03-03T05:51:31.989Z,65.77
2023-03-03T05:56:35.132Z,46.43
2023-03-03T06:01:39.165Z,42.77
2023-03-03T06:06:42.246Z,44.50
2023-03-03T06:11:45.312Z,32.87
2023-03-03T06:16:48.881Z,39.30
2023-03-03T06:21:51.844Z,38.60
2023-03-03T06:26:55.820Z,35.23
2023-03-03T06:31:58.922Z,38.47
2023-03-03T06:37:02.258Z,63.17
2023-03-03T06:42:05.386Z,59.03
2023-03-03T06:47:08.640Z,73.87
2023-03-03T06:52:27.744Z,70.57
2023-03-03T06:57:34.464Z,58.33
2023-03-03T07:02:37.289Z,55.33
2023-03-03T07:07:40.169Z,51.63
2023-03-03T07:12:43.019Z,63.30
2023-03-03T07:17:51.204Z,82.07
2023-03-03T07:22:54.370Z,55.03
2023-03-03T07:28:12.327Z,72.77
2023-03-03T07:33:41.103Z,93.47
2023-03-03T07:39:01.166Z,76.37
2023-03-03T07:44:21.300Z,66.00
2023-03-03T07:49:37.437Z,74.47
2023-03-03T07:54:43.599Z,71.60
2023-03-03T08:00:02.453Z,70.03
2023-03-03T08:05:31.425Z,44.60
2023-03-03T08:10:53.246Z,32.67
2023-03-03T08:21:26.748Z,33.97
2023-03-03T08:26:29.732Z,36.43
2023-03-03T08:31:41.377Z,33.20
2023-03-03T08:36:44.922Z,28.60
2023-03-03T08:41:47.976Z,31.23
2023-03-03T08:46:50.978Z,26.70
2023-03-03T08:51:54.657Z,29.57
2023-03-03T08:56:57.666Z,28.07
2023-03-03T09:02:00.724Z,29.40
2023-03-03T09:07:03.599Z,26.27
2023-03-03T09:12:22.612Z,23.83
2023-03-03T09:17:37.615Z,24.10
2023-03-03T09:22:40.734Z,22.98
2023-03-03T09:27:43.517Z,27.08
2023-03-03T09:32:46.241Z,21.45
2023-03-03T09:37:52.629Z,22.27
2023-03-03T09:43:26.371Z,16.92
2023-03-03T09:48:47.750Z,10.40
2023-03-03T09:54:18.297Z,9.73
2023-03-03T09:59:44.079Z,11.68
2023-03-03T10:05:15.293Z,12.90
2023-03-03T10:10:49.158Z,13.88
2023-03-03T10:16:19.372Z,9.43
2023-03-03T10:21:50.624Z,11.57
2023-03-03T10:27:12.368Z,9.77
2023-03-03T10:32:41.399Z,12.05
2023-03-03T10:38:15.372Z,8.98
2023-03-03T10:44:18.455Z,9.75
2023-03-03T10:50:21.507Z,7.30
2023-03-03T10:55:53.177Z,6.63
2023-03-03T11:01:31.024Z,8.63
2023-03-03T11:07:16.381Z,11.80
2023-03-03T11:12:35.173Z,10.05
2023-03-03T11:17:49.945Z,10.20
2023-03-03T11:23:07.291Z,9.43
2023-03-03T11:28:44.396Z,10.25
2023-03-03T11:33:53.155Z,11.57
2023-03-03T11:39:00.240Z,19.95
2023-03-03T11:44:06.096Z,17.50
2023-03-03T11:49:18.982Z,31.77
2023-03-03T11:54:56.391Z,32.22
2023-03-03T12:00:17.830Z,12.20
2023-03-03T12:06:05.278Z,10.93
2023-03-03T12:11:43.196Z,8.10
2023-03-03T12:17:15.737Z,13.35
2023-03-03T12:22:33.597Z,9.13
2023-03-03T12:28:05.644Z,10.48
2023-03-03T12:33:31.077Z,11.20
2023-03-03T12:39:25.326Z,7.25
2023-03-03T12:45:11.387Z,10.57
2023-03-03T12:50:48.018Z,9.60
2023-03-03T12:56:00.453Z,10.43
2023-03-03T13:01:36.822Z,15.60
2023-03-03T13:07:25.246Z,11.48
2023-03-03T13:12:42.157Z,16.70
2023-03-03T13:17:54.246Z,14.95
2023-03-03T13:23:31.850Z,14.25
2023-03-03T13:28:58.491Z,12.93
2023-03-03T13:34:02.659Z,14.35
2023-03-03T13:39:22.637Z,13.27
2023-03-03T13:44:39.047Z,19.73
2023-03-03T13:50:07.940Z,15.43
2023-03-03T13:55:44.672Z,16.37
2023-03-03T14:01:02.501Z,17.33
2023-03-03T14:06:15.252Z,18.33
2023-03-03T14:12:20.187Z,17.17
2023-03-03T14:17:58.165Z,18.87
2023-03-03T14:23:33.897Z,15.87
2023-03-03T14:29:35.612Z,15.40
2023-03-03T14:34:41.543Z,14.20
2023-03-03T14:39:49.002Z,14.57
2023-03-03T14:44:56.416Z,16.63
2023-03-03T14:50:03.582Z,16.53
2023-03-03T14:55:38.827Z,16.07
2023-03-03T15:00:41.789Z,16.63
2023-03-03T15:05:57.879Z,17.27
2023-03-03T15:11:17.418Z,23.73
2023-03-03T15:16:31.947Z,16.03
2023-03-03T15:21:40.662Z,18.17
2023-03-03T15:27:00.339Z,21.03
2023-03-03T15:32:44.765Z,60.97
2023-03-03T15:38:22.505Z,24.10
2023-03-03T15:43:35.188Z,23.73
2023-03-03T15:48:57.151Z,50.80
2023-03-03T15:54:25.379Z,23.43
2023-03-03T15:59:51.133Z,18.13
2023-03-03T16:05:22.704Z,18.47
2023-03-03T16:11:06.762Z,20.70
2023-03-03T16:16:37.067Z,19.60
2023-03-03T16:22:24.669Z,25.10
2023-03-03T16:28:08.765Z,19.80
2023-03-03T16:33:44.035Z,25.83
2023-03-03T16:39:31.987Z,24.97
2023-03-03T16:44:43.237Z,36.13
2023-03-03T16:49:59.460Z,33.97
2023-03-03T16:55:32.636Z,28.57
2023-03-03T17:01:08.839Z,27.90
2023-03-03T17:06:48.365Z,28.67
2023-03-03T17:12:26.907Z,26.97
2023-03-03T17:17:54.358Z,27.73
2023-03-03T17:23:43.233Z,67.60
2023-03-03T17:29:18.521Z,38.90
2023-03-03T17:35:20.311Z,51.20
2023-03-03T17:41:07.516Z,83.57
2023-03-03T17:46:31.388Z,87.50
2023-03-03T17:57:59.348Z,43.23
2023-03-03T18:03:15.787Z,37.93
2023-03-03T18:08:47.064Z,38.07
2023-03-03T18:14:15.967Z,38.03
2023-03-03T18:19:50.495Z,39.90
2023-03-03T18:24:55.192Z,41.57
2023-03-03T18:30:51.956Z,43.30
2023-03-03T18:36:36.590Z,43.23
2023-03-03T18:42:15.660Z,44.67
2023-03-03T18:47:21.330Z,41.33
2023-03-03T18:52:31.821Z,44.17
2023-03-03T18:57:35.827Z,47.90
2023-03-03T19:02:49.691Z,42.87
2023-03-03T19:08:18.760Z,40.73
2023-03-03T19:13:33.725Z,37.53
2023-03-03T19:18:42.584Z,38.07
2023-03-03T19:23:59.955Z,38.93
2023-03-03T19:29:27.871Z,37.83
2023-03-03T19:35:01.744Z,37.00
2023-03-03T19:41:09.738Z,38.77
2023-03-03T19:47:19.026Z,34.90
2023-03-03T19:53:06.136Z,34.37
2023-03-03T19:58:23.281Z,37.93
2023-03-03T20:03:54.703Z,48.27
2023-03-03T20:09:16.270Z,66.30
2023-03-03T20:15:02.329Z,58.35
2023-03-03T20:20:36.534Z,60.03
2023-03-03T20:26:14.808Z,95.67
2023-03-03T20:31:48.025Z,62.53
2023-03-03T20:37:10.399Z,56.80
2023-03-03T20:42:56.203Z,48.57
2023-03-03T20:48:40.858Z,55.60
2023-03-03T20:54:38.406Z,147.53
2023-03-03T21:00:22.741Z,57.13
2023-03-03T21:05:26.394Z,42.37
2023-03-03T21:10:36.128Z,32.27
2023-03-03T21:15:39.894Z,28.00
2023-03-03T21:20:42.626Z,27.57
2023-03-03T21:25:54.563Z,25.60
2023-03-03T21:31:18.025Z,26.87
2023-03-03T21:36:31.931Z,25.23
2023-03-03T21:42:14.499Z,30.23
2023-03-03T21:52:23.040Z,27.53
2023-03-03T21:57:25.943Z,22.70
2023-03-03T22:02:29.109Z,29.63
2023-03-03T22:07:32.257Z,35.53
2023-03-03T22:12:35.316Z,48.67
2023-03-03T22:17:38.476Z,56.17
2023-03-03T22:22:42.244Z,49.53
2023-03-03T22:27:45.175Z,57.37
2023-03-03T22:32:52.320Z,54.67
2023-03-03T22:37:55.220Z,53.97
2023-03-03T22:42:59.186Z,50.50
2023-03-03T22:48:02.233Z,52.57
2023-03-03T22:53:08.058Z,52.00
2023-03-03T22:58:12.207Z,53.63
2023-03-03T23:03:16.261Z,55.53
2023-03-03T23:08:20.530Z,51.57
2023-03-03T23:13:25.198Z,32.63
2023-03-03T23:18:28.790Z,25.10
2023-03-03T23:23:32.364Z,22.90
2023-03-03T23:28:35.549Z,19.33
2023-03-03T23:33:38.575Z,20.83
2023-03-03T23:38:43.194Z,23.37
2023-03-03T23:43:46.373Z,16.77
2023-03-03T23:48:49.448Z,21.50
2023-03-03T23:53:52.481Z,18.10
2023-03-03T23:58:55.623Z,18.23
